createdAt,value
2017-07-16T00:00:09.565Z,10.00
2017-07-16T00:02:38.027Z,10.10
2017-07-16T00:05:06.493Z,10.20
2017-07-16T00:07:34.937Z,10.00
2017-07-16T00:10:03.861Z,10.00
2017-07-16T00:12:32.345Z,10.00
2017-07-16T00:15:00.843Z,10.00
2017-07-16T00:17:29.744Z,10.00
2017-07-16T00:19:58.777Z,10.00
2017-07-16T00:22:27.207Z,9.90
2017-07-16T00:24:55.708Z,9.80
2017-07-16T00:27:24.534Z,9.70
2017-07-16T00:29:52.972Z,9.60
2017-07-16T00:32:21.445Z,9.60
2017-07-16T00:34:50.641Z,9.50
2017-07-16T00:37:19.109Z,9.60
2017-07-16T00:39:47.542Z,9.50
2017-07-16T00:42:16.378Z,9.50
2017-07-16T00:44:45.440Z,9.40
2017-07-16T00:47:13.871Z,9.50
2017-07-16T00:49:42.838Z,9.40
2017-07-16T00:52:11.893Z,9.40
2017-07-16T00:54:40.340Z,9.40
2017-07-16T00:57:09.184Z,9.50
2017-07-16T00:59:38.055Z,9.50
2017-07-16T01:02:07.466Z,9.50
2017-07-16T01:04:36.293Z,9.50
2017-07-16T01:07:05.115Z,9.50
2017-07-16T01:09:34.143Z,9.50
2017-07-16T01:12:02.581Z,9.40
2017-07-16T01:14:31.013Z,9.30
2017-07-16T01:16:59.477Z,9.20
2017-07-16T01:19:28.138Z,9.10
2017-07-16T01:21:56.963Z,9.20
2017-07-16T01:24:25.427Z,9.20
2017-07-16T01:26:54.909Z,9.30
2017-07-16T01:29:23.722Z,9.30
2017-07-16T01:31:52.159Z,9.30
2017-07-16T01:34:20.640Z,9.40
2017-07-16T01:36:49.862Z,9.50
2017-07-16T01:39:18.737Z,9.50
2017-07-16T01:41:47.881Z,9.70
2017-07-16T01:44:16.321Z,9.70
2017-07-16T01:46:44.766Z,9.90
2017-07-16T01:49:13.268Z,9.90
2017-07-16T01:51:41.700Z,9.90
2017-07-16T01:54:10.131Z,9.90
2017-07-16T01:56:38.264Z,9.90
2017-07-16T01:59:06.782Z,9.90
2017-07-16T02:01:35.215Z,9.90
2017-07-16T02:04:03.647Z,9.80
2017-07-16T02:06:32.141Z,9.80
2017-07-16T02:09:00.987Z,9.70
2017-07-16T02:11:29.430Z,9.70
2017-07-16T02:13:58.301Z,9.70
2017-07-16T02:16:26.733Z,9.80
2017-07-16T02:18:55.641Z,9.80
2017-07-16T02:21:24.073Z,9.90
2017-07-16T02:23:52.489Z,10.00
2017-07-16T02:26:21.743Z,10.10
2017-07-16T02:28:50.171Z,10.10
2017-07-16T02:31:19.011Z,10.10
2017-07-16T02:33:47.498Z,10.10
2017-07-16T02:36:15.931Z,10.10
2017-07-16T02:38:45.132Z,10.10
2017-07-16T02:41:13.617Z,10.10
2017-07-16T02:43:42.828Z,10.10
2017-07-16T02:46:11.263Z,10.00
2017-07-16T02:48:40.137Z,9.90
2017-07-16T02:51:08.582Z,9.80
2017-07-16T02:53:37.405Z,9.70
2017-07-16T02:56:06.401Z,9.70
2017-07-16T02:58:34.817Z,9.70
2017-07-16T03:01:03.851Z,9.60
2017-07-16T03:03:32.281Z,9.60
2017-07-16T03:06:01.163Z,9.50
2017-07-16T03:08:30.369Z,9.60
2017-07-16T03:10:59.903Z,9.50
2017-07-16T03:13:28.739Z,9.50
2017-07-16T03:15:57.175Z,9.60
2017-07-16T03:18:25.644Z,9.50
2017-07-16T03:20:54.583Z,9.50
2017-07-16T03:23:23.408Z,9.50
2017-07-16T03:25:52.653Z,9.60
2017-07-16T03:28:21.493Z,9.70
2017-07-16T03:30:49.903Z,9.80
2017-07-16T03:33:18.384Z,9.90
2017-07-16T03:35:46.958Z,10.00
2017-07-16T03:38:15.393Z,10.10
2017-07-16T03:40:44.126Z,10.10
2017-07-16T03:43:12.552Z,10.20
2017-07-16T03:45:41.596Z,10.20
2017-07-16T03:48:10.677Z,10.20
2017-07-16T03:50:39.489Z,10.20
2017-07-16T03:53:08.356Z,10.20
2017-07-16T03:55:36.796Z,10.30
2017-07-16T03:58:06.184Z,10.40
2017-07-16T04:00:35.052Z,10.50
2017-07-16T04:03:03.480Z,10.50
2017-07-16T04:05:32.311Z,10.60
2017-07-16T04:08:02.031Z,10.70
2017-07-16T04:10:31.099Z,10.80
2017-07-16T04:12:59.939Z,10.90
2017-07-16T04:15:28.372Z,10.90
2017-07-16T04:17:57.272Z,10.90
2017-07-16T04:20:26.466Z,11.00
2017-07-16T04:22:55.095Z,11.10
2017-07-16T04:25:23.574Z,11.10
2017-07-16T04:27:52.424Z,11.10
2017-07-16T04:30:21.302Z,11.10
2017-07-16T04:32:50.147Z,11.30
2017-07-16T04:35:18.597Z,11.40
2017-07-16T04:37:47.071Z,11.60
2017-07-16T04:40:15.504Z,11.80
2017-07-16T04:42:44.114Z,11.90
2017-07-16T04:45:12.988Z,11.90
2017-07-16T04:47:41.439Z,12.00
2017-07-16T04:50:10.069Z,12.20
2017-07-16T04:52:38.932Z,12.40
2017-07-16T04:55:07.356Z,12.40
2017-07-16T04:57:36.261Z,12.50
2017-07-16T05:00:04.697Z,12.50
2017-07-16T05:02:33.155Z,12.70
2017-07-16T05:05:01.828Z,13.10
2017-07-16T05:07:30.396Z,13.50
2017-07-16T05:09:59.224Z,13.90
2017-07-16T05:12:28.151Z,14.30
2017-07-16T05:14:56.619Z,14.50
2017-07-16T05:17:25.826Z,14.60
2017-07-16T05:19:55.071Z,14.70
2017-07-16T05:22:23.515Z,14.50
2017-07-16T05:24:52.712Z,14.50
2017-07-16T05:27:22.205Z,14.50
2017-07-16T05:29:50.313Z,14.70
2017-07-16T05:32:19.142Z,14.70
2017-07-16T05:34:48.024Z,14.70
2017-07-16T05:37:16.981Z,14.90
2017-07-16T05:39:45.602Z,15.10
2017-07-16T05:42:14.093Z,15.50
2017-07-16T05:44:42.522Z,16.00
2017-07-16T05:47:11.496Z,16.70
2017-07-16T05:49:40.374Z,17.50
2017-07-16T05:52:09.590Z,18.60
2017-07-16T05:54:38.020Z,19.40
2017-07-16T05:57:07.126Z,19.60
2017-07-16T05:59:35.952Z,19.90
2017-07-16T06:02:05.186Z,20.90
2017-07-16T06:04:34.215Z,22.20
2017-07-16T06:07:02.769Z,22.60
2017-07-16T06:09:31.263Z,23.00
2017-07-16T06:12:00.487Z,23.90
2017-07-16T06:14:29.325Z,24.50
2017-07-16T06:16:57.774Z,25.40
2017-07-16T06:19:26.963Z,26.10
2017-07-16T06:21:55.484Z,25.40
2017-07-16T06:24:23.924Z,25.50
2017-07-16T06:26:52.761Z,25.40
2017-07-16T06:29:21.257Z,25.40
2017-07-16T06:31:49.685Z,25.80
2017-07-16T06:34:18.907Z,25.40
2017-07-16T06:36:47.790Z,23.80
2017-07-16T06:39:16.612Z,23.30
2017-07-16T06:41:45.041Z,23.80
2017-07-16T06:44:13.920Z,24.30
2017-07-16T06:46:42.537Z,25.20
2017-07-16T06:49:11.008Z,25.40
2017-07-16T06:51:39.848Z,26.10
2017-07-16T06:54:08.288Z,25.40
2017-07-16T06:56:37.156Z,24.70
2017-07-16T06:59:06.199Z,24.80
2017-07-16T07:04:04.526Z,23.40
2017-07-16T07:06:33.383Z,22.20
2017-07-16T07:09:01.819Z,22.10
2017-07-16T07:11:30.832Z,21.20
2017-07-16T07:13:59.672Z,22.50
2017-07-16T07:16:28.108Z,24.90
2017-07-16T07:18:57.331Z,25.20
2017-07-16T07:21:25.773Z,25.90
2017-07-16T07:23:54.659Z,26.20
2017-07-16T07:26:23.843Z,24.50
2017-07-16T07:28:52.681Z,23.50
2017-07-16T07:31:21.316Z,24.50
2017-07-16T07:33:50.349Z,25.60
2017-07-16T07:36:19.540Z,26.30
2017-07-16T07:38:48.037Z,26.80
2017-07-16T07:41:16.520Z,27.60
2017-07-16T07:43:45.359Z,28.10
2017-07-16T07:46:14.189Z,29.10
2017-07-16T07:48:43.421Z,29.80
2017-07-16T07:51:12.260Z,32.20
2017-07-16T07:53:41.137Z,34.00
2017-07-16T07:56:09.593Z,35.60
2017-07-16T07:58:38.780Z,36.30
2017-07-16T08:01:07.647Z,33.20
2017-07-16T08:03:36.084Z,31.80
2017-07-16T08:06:04.515Z,31.60
2017-07-16T08:08:33.020Z,30.70
2017-07-16T08:11:01.448Z,31.30
2017-07-16T08:13:30.072Z,31.40
2017-07-16T08:15:58.554Z,30.80
2017-07-16T08:18:26.992Z,31.60
2017-07-16T08:20:55.887Z,32.50
2017-07-16T08:23:25.148Z,32.80
2017-07-16T08:25:53.581Z,31.50
2017-07-16T08:28:22.080Z,30.90
2017-07-16T08:30:50.517Z,30.10
2017-07-16T08:33:19.346Z,32.30
2017-07-16T08:35:47.837Z,34.40
2017-07-16T08:38:16.673Z,34.70
2017-07-16T08:40:45.506Z,34.00
2017-07-16T08:43:14.381Z,32.70
2017-07-16T08:45:43.816Z,32.80
2017-07-16T08:48:12.249Z,34.30
2017-07-16T08:50:41.121Z,34.80
2017-07-16T08:53:10.496Z,34.30
2017-07-16T08:55:39.581Z,33.40
2017-07-16T08:58:08.444Z,33.30
2017-07-16T09:00:37.279Z,32.60
2017-07-16T09:03:05.771Z,31.90
2017-07-16T09:05:34.607Z,31.90
2017-07-16T09:08:03.265Z,32.20
2017-07-16T09:10:31.738Z,32.30
2017-07-16T09:13:01.338Z,34.50
2017-07-16T09:15:30.193Z,35.20
2017-07-16T09:17:59.016Z,34.80
2017-07-16T09:20:28.219Z,35.90
2017-07-16T09:22:57.496Z,36.30
2017-07-16T09:25:26.335Z,33.70
2017-07-16T09:27:55.301Z,35.20
2017-07-16T09:30:23.917Z,35.70
2017-07-16T09:32:52.356Z,36.00
2017-07-16T09:35:20.784Z,35.40
2017-07-16T09:37:50.061Z,35.70
2017-07-16T09:40:18.929Z,36.20
2017-07-16T09:42:47.393Z,34.00
2017-07-16T09:45:15.893Z,33.80
2017-07-16T09:47:45.089Z,33.00
2017-07-16T09:50:13.524Z,31.90
2017-07-16T09:52:43.332Z,33.60
2017-07-16T09:55:11.785Z,34.00
2017-07-16T09:57:40.904Z,33.10
2017-07-16T10:00:09.536Z,34.60
2017-07-16T10:02:38.432Z,34.90
2017-07-16T10:05:08.198Z,34.00
2017-07-16T10:07:37.596Z,34.50
2017-07-16T10:10:06.433Z,35.60
2017-07-16T10:12:35.640Z,35.70
2017-07-16T10:15:04.478Z,36.40
2017-07-16T10:17:33.153Z,36.20
2017-07-16T10:20:01.985Z,37.00
2017-07-16T10:22:31.302Z,37.50
2017-07-16T10:25:00.145Z,37.70
2017-07-16T10:27:28.993Z,35.60
2017-07-16T10:29:57.885Z,32.70
2017-07-16T10:32:26.321Z,32.60
2017-07-16T10:34:55.192Z,33.90
2017-07-16T10:37:23.633Z,35.30
2017-07-16T10:39:52.355Z,36.00
2017-07-16T10:42:21.575Z,36.30
2017-07-16T10:44:50.019Z,37.10
2017-07-16T10:47:18.502Z,36.30
2017-07-16T10:49:46.952Z,36.80
2017-07-16T10:52:15.463Z,35.80
2017-07-16T10:54:44.107Z,36.70
2017-07-16T10:57:12.545Z,37.40
2017-07-16T10:59:41.085Z,37.40
2017-07-16T11:02:09.527Z,38.20
2017-07-16T11:04:37.959Z,36.40
2017-07-16T11:07:06.475Z,37.70
2017-07-16T11:09:35.210Z,37.80
2017-07-16T11:12:03.635Z,38.20
2017-07-16T11:14:32.181Z,35.90
2017-07-16T11:17:00.788Z,32.40
2017-07-16T11:19:29.625Z,30.00
2017-07-16T11:21:58.514Z,30.70
2017-07-16T11:24:26.996Z,32.30
2017-07-16T11:26:55.871Z,32.30
2017-07-16T11:29:24.796Z,32.90
2017-07-16T11:31:53.629Z,34.60
2017-07-16T11:34:22.086Z,36.40
2017-07-16T11:36:50.559Z,34.50
2017-07-16T11:39:19.776Z,34.00
2017-07-16T11:41:48.270Z,34.80
2017-07-16T11:44:17.406Z,30.80
2017-07-16T11:46:46.243Z,27.80
2017-07-16T11:49:14.705Z,26.20
2017-07-16T11:51:43.415Z,26.80
2017-07-16T11:54:12.281Z,29.40
2017-07-16T11:56:41.197Z,30.90
2017-07-16T11:59:09.650Z,32.20
2017-07-16T12:01:38.085Z,34.00
2017-07-16T12:04:06.560Z,36.30
2017-07-16T12:06:35.440Z,37.40
2017-07-16T12:09:03.622Z,36.40
2017-07-16T12:11:32.092Z,36.30
2017-07-16T12:14:00.595Z,35.00
2017-07-16T12:16:29.481Z,34.80
2017-07-16T12:18:57.926Z,36.40
2017-07-16T12:21:26.362Z,32.60
2017-07-16T12:23:55.221Z,31.60
2017-07-16T12:26:24.062Z,34.80
2017-07-16T12:28:53.761Z,34.40
2017-07-16T12:31:22.590Z,36.80
2017-07-16T12:33:51.806Z,38.20
2017-07-16T12:36:20.644Z,36.90
2017-07-16T12:38:49.081Z,37.70
2017-07-16T12:41:17.564Z,36.50
2017-07-16T12:43:46.216Z,36.30
2017-07-16T12:46:15.576Z,37.20
2017-07-16T12:48:44.073Z,38.10
2017-07-16T12:51:12.944Z,38.70
2017-07-16T12:53:41.782Z,39.90
2017-07-16T12:56:10.310Z,36.50
2017-07-16T12:58:39.140Z,33.10
2017-07-16T13:01:07.584Z,33.20
2017-07-16T13:03:36.461Z,36.70
2017-07-16T13:06:04.886Z,39.50
2017-07-16T13:08:33.748Z,38.10
2017-07-16T13:11:02.721Z,39.00
2017-07-16T13:13:32.047Z,38.50
2017-07-16T13:16:01.631Z,38.70
2017-07-16T13:18:30.481Z,39.80
2017-07-16T13:20:58.919Z,41.20
2017-07-16T13:23:27.806Z,39.30
2017-07-16T13:25:56.286Z,41.50
2017-07-16T13:28:24.727Z,40.60
2017-07-16T13:30:52.886Z,40.40
2017-07-16T13:33:21.329Z,40.90
2017-07-16T13:35:49.817Z,35.60
2017-07-16T13:38:18.291Z,31.50
2017-07-16T13:40:47.159Z,29.20
2017-07-16T13:43:15.771Z,28.40
2017-07-16T13:45:44.223Z,27.40
2017-07-16T13:48:13.110Z,27.40
2017-07-16T13:50:41.537Z,30.40
2017-07-16T13:53:10.363Z,34.20
2017-07-16T13:55:38.833Z,36.10
2017-07-16T13:58:07.266Z,34.30
2017-07-16T14:00:36.136Z,34.80
2017-07-16T14:03:04.613Z,35.50
2017-07-16T14:05:33.464Z,35.40
2017-07-16T14:08:01.960Z,33.20
2017-07-16T14:10:30.391Z,32.20
2017-07-16T14:13:00.527Z,31.90
2017-07-16T14:15:29.413Z,30.30
2017-07-16T14:18:00.661Z,29.90
2017-07-16T14:23:06.835Z,29.50
2017-07-16T14:25:36.179Z,28.80
2017-07-16T14:28:04.825Z,30.50
2017-07-16T14:33:03.244Z,33.80
2017-07-16T14:35:31.685Z,35.30
2017-07-16T14:38:00.171Z,36.00
2017-07-16T14:40:29.609Z,35.90
2017-07-16T14:43:00.083Z,34.70
2017-07-16T14:45:29.296Z,34.40
2017-07-16T14:47:57.737Z,35.80
2017-07-16T14:50:27.027Z,36.50
2017-07-16T14:52:55.723Z,36.80
2017-07-16T14:55:24.156Z,35.70
2017-07-16T14:57:52.688Z,35.10
2017-07-16T15:00:21.171Z,35.40
2017-07-16T15:02:50.961Z,35.60
2017-07-16T15:05:19.794Z,35.60
2017-07-16T15:07:50.028Z,34.60
2017-07-16T15:10:18.870Z,33.90
2017-07-16T15:12:47.743Z,34.70
2017-07-16T15:15:16.594Z,35.20
2017-07-16T15:17:45.885Z,35.10
2017-07-16T15:20:14.504Z,35.40
2017-07-16T15:22:42.936Z,35.30
2017-07-16T15:25:11.604Z,33.30
2017-07-16T15:27:40.135Z,32.40
2017-07-16T15:30:09.001Z,33.00
2017-07-16T15:32:37.891Z,33.20
2017-07-16T15:35:07.830Z,33.30
2017-07-16T15:37:36.341Z,31.90
2017-07-16T15:40:06.293Z,31.00
2017-07-16T15:42:35.592Z,29.10
2017-07-16T15:45:04.673Z,28.50
2017-07-16T15:47:33.099Z,28.70
2017-07-16T15:50:01.993Z,28.70
2017-07-16T15:52:30.887Z,28.40
2017-07-16T15:54:59.854Z,27.50
2017-07-16T15:57:28.689Z,28.00
2017-07-16T15:59:57.550Z,29.50
2017-07-16T16:02:26.443Z,31.20
2017-07-16T16:04:54.881Z,30.90
2017-07-16T16:07:23.365Z,31.10
2017-07-16T16:09:52.275Z,31.70
2017-07-16T16:12:21.100Z,32.60
2017-07-16T16:14:50.390Z,31.50
2017-07-16T16:17:19.209Z,30.40
2017-07-16T16:19:48.544Z,30.00
2017-07-16T16:22:17.443Z,30.50
2017-07-16T16:24:46.310Z,31.40
2017-07-16T16:27:14.761Z,31.50
2017-07-16T16:29:43.259Z,31.30
2017-07-16T16:32:12.857Z,31.40
2017-07-16T16:34:42.465Z,31.30
2017-07-16T16:37:11.130Z,29.90
2017-07-16T16:39:39.579Z,28.90
2017-07-16T16:42:08.489Z,28.60
2017-07-16T16:44:36.919Z,28.80
2017-07-16T16:47:08.821Z,28.10
2017-07-16T16:49:38.059Z,28.10
2017-07-16T16:52:06.503Z,27.90
2017-07-16T16:54:35.339Z,27.30
2017-07-16T16:57:04.838Z,27.00
2017-07-16T16:59:34.785Z,26.90
2017-07-16T17:02:03.222Z,26.70
2017-07-16T17:04:32.463Z,26.40
2017-07-16T17:07:00.897Z,26.40
2017-07-16T17:09:29.327Z,26.20
2017-07-16T17:11:58.235Z,26.20
2017-07-16T17:14:27.815Z,26.10
2017-07-16T17:16:56.858Z,25.80
2017-07-16T17:19:25.331Z,25.70
2017-07-16T17:21:54.182Z,25.70
2017-07-16T17:24:23.460Z,25.70
2017-07-16T17:26:52.549Z,25.80
2017-07-16T17:29:21.010Z,25.60
2017-07-16T17:31:50.313Z,25.80
2017-07-16T17:34:18.784Z,26.00
2017-07-16T17:36:47.742Z,25.80
2017-07-16T17:39:17.589Z,25.70
2017-07-16T17:41:46.479Z,25.70
2017-07-16T17:44:14.941Z,25.70
2017-07-16T17:46:44.301Z,25.70
2017-07-16T17:49:13.144Z,25.70
2017-07-16T17:51:42.541Z,25.70
2017-07-16T17:54:10.990Z,25.50
2017-07-16T17:56:39.148Z,25.20
2017-07-16T17:59:07.632Z,25.10
2017-07-16T18:01:36.455Z,25.00
2017-07-16T18:04:05.702Z,24.90
2017-07-16T18:06:34.151Z,24.80
2017-07-16T18:09:03.074Z,24.70
2017-07-16T18:11:31.964Z,24.60
2017-07-16T18:14:01.093Z,24.50
2017-07-16T18:16:30.770Z,24.40
2017-07-16T18:18:59.702Z,24.40
2017-07-16T18:21:29.666Z,24.40
2017-07-16T18:23:59.603Z,24.20
2017-07-16T18:26:28.576Z,24.00
2017-07-16T18:28:57.027Z,23.90
2017-07-16T18:31:27.862Z,23.90
2017-07-16T18:33:58.006Z,23.80
2017-07-16T18:36:26.833Z,23.80
2017-07-16T18:38:56.834Z,23.60
2017-07-16T18:41:25.687Z,23.60
2017-07-16T18:43:54.147Z,23.50
2017-07-16T18:46:23.193Z,23.40
2017-07-16T18:48:51.711Z,23.20
2017-07-16T18:51:20.560Z,23.20
2017-07-16T18:53:49.811Z,23.10
2017-07-16T18:56:19.218Z,23.00
2017-07-16T18:58:48.472Z,22.70
2017-07-16T19:01:17.895Z,22.60
2017-07-16T19:03:46.450Z,22.30
2017-07-16T19:06:14.923Z,22.10
2017-07-16T19:08:43.388Z,21.80
2017-07-16T19:11:11.882Z,21.50
2017-07-16T19:13:41.020Z,21.10
2017-07-16T19:16:10.417Z,20.80
2017-07-16T19:18:39.487Z,20.50
2017-07-16T19:21:09.143Z,20.20
2017-07-16T19:23:38.698Z,20.00
2017-07-16T19:26:07.181Z,19.80
2017-07-16T19:28:36.327Z,19.60
2017-07-16T19:31:05.258Z,19.40
2017-07-16T19:33:33.830Z,19.20
2017-07-16T19:36:03.346Z,19.10
2017-07-16T19:38:32.048Z,19.00
2017-07-16T19:41:02.467Z,18.90
2017-07-16T19:43:32.214Z,18.80
2017-07-16T19:46:02.784Z,18.70
2017-07-16T19:48:31.781Z,18.40
2017-07-16T19:51:00.298Z,18.40
2017-07-16T19:53:29.615Z,18.20
2017-07-16T19:55:58.601Z,18.00
2017-07-16T19:58:27.985Z,17.90
2017-07-16T20:00:57.029Z,17.80
2017-07-16T20:03:28.293Z,17.70
2017-07-16T20:05:57.183Z,17.60
2017-07-16T20:08:26.063Z,17.50
2017-07-16T20:10:55.928Z,17.50
2017-07-16T20:13:24.430Z,17.50
2017-07-16T20:15:53.276Z,17.60
2017-07-16T20:18:21.790Z,17.70
2017-07-16T20:20:50.241Z,17.80
2017-07-16T20:23:19.460Z,17.80
2017-07-16T20:25:48.342Z,17.70
2017-07-16T20:28:16.795Z,17.50
2017-07-16T20:30:46.170Z,17.40
2017-07-16T20:33:16.734Z,17.30
2017-07-16T20:35:45.945Z,17.20
2017-07-16T20:38:14.795Z,17.10
2017-07-16T20:40:43.343Z,16.90
2017-07-16T20:43:12.168Z,16.70
2017-07-16T20:45:40.632Z,16.70
2017-07-16T20:48:09.511Z,16.60
2017-07-16T20:50:38.932Z,16.50
2017-07-16T20:53:07.836Z,16.40
2017-07-16T20:55:36.677Z,16.40
2017-07-16T20:58:06.075Z,16.30
2017-07-16T21:00:34.539Z,16.30
2017-07-16T21:03:03.743Z,16.30
2017-07-16T21:05:32.241Z,16.30
2017-07-16T21:08:01.063Z,16.20
2017-07-16T21:10:30.122Z,16.20
2017-07-16T21:13:00.328Z,16.10
2017-07-16T21:15:29.166Z,16.00
2017-07-16T21:17:57.606Z,15.80
2017-07-16T21:20:26.114Z,15.70
2017-07-16T21:22:54.984Z,15.70
2017-07-16T21:25:23.417Z,15.70
2017-07-16T21:27:52.289Z,15.90
2017-07-16T21:30:21.154Z,15.90
2017-07-16T21:32:49.653Z,16.00
2017-07-16T21:35:18.109Z,16.10
2017-07-16T21:37:46.945Z,16.10
2017-07-16T21:40:16.044Z,16.00
2017-07-16T21:42:44.489Z,15.80
2017-07-16T21:45:12.919Z,15.70
2017-07-16T21:47:41.408Z,15.70
2017-07-16T21:50:09.855Z,15.80
2017-07-16T21:52:38.510Z,15.70
2017-07-16T21:55:07.789Z,15.80
2017-07-16T21:57:36.651Z,15.80
2017-07-16T22:00:05.703Z,15.70
2017-07-16T22:02:34.541Z,15.40
2017-07-16T22:05:05.055Z,15.40
2017-07-16T22:07:33.545Z,15.30
2017-07-16T22:10:02.395Z,15.20
2017-07-16T22:12:31.263Z,15.20
2017-07-16T22:15:01.535Z,15.10
2017-07-16T22:17:29.991Z,15.00
2017-07-16T22:19:59.419Z,14.80
2017-07-16T22:22:27.917Z,14.80
2017-07-16T22:24:56.789Z,14.90
2017-07-16T22:27:27.154Z,15.00
2017-07-16T22:29:55.655Z,15.00
2017-07-16T22:32:24.100Z,15.10
2017-07-16T22:34:52.578Z,15.00
2017-07-16T22:37:21.541Z,15.00
2017-07-16T22:39:50.376Z,15.00
2017-07-16T22:42:20.326Z,15.00
2017-07-16T22:44:49.192Z,15.00
2017-07-16T22:47:18.879Z,14.90
2017-07-16T22:49:47.347Z,14.80
2017-07-16T22:52:16.183Z,14.70
2017-07-16T22:54:44.617Z,14.60
2017-07-16T22:57:13.513Z,14.60
2017-07-16T22:59:42.350Z,14.60
2017-07-16T23:02:11.222Z,14.60
2017-07-16T23:04:40.518Z,14.60
2017-07-16T23:07:08.979Z,14.60
2017-07-16T23:09:37.813Z,14.60
2017-07-16T23:12:06.567Z,14.60
2017-07-16T23:14:35.117Z,14.60
2017-07-16T23:17:03.613Z,14.60
2017-07-16T23:19:32.454Z,14.60
2017-07-16T23:22:01.275Z,14.80
2017-07-16T23:24:30.198Z,14.80
2017-07-16T23:27:00.813Z,14.90
2017-07-16T23:29:29.497Z,14.80
2017-07-16T23:31:58.338Z,14.70
2017-07-16T23:34:26.794Z,14.70
2017-07-16T23:36:56.345Z,14.60
2017-07-16T23:39:26.833Z,14.60
2017-07-16T23:41:55.259Z,14.60
2017-07-16T23:44:24.463Z,14.50
2017-07-16T23:46:52.944Z,14.50
2017-07-16T23:49:21.793Z,14.60
2017-07-16T23:51:50.240Z,14.40
2017-07-16T23:54:18.721Z,14.50
2017-07-16T23:56:47.142Z,14.40
2017-07-16T23:59:15.582Z,14.40
